Terminal Aerodrome Forecast
Issued by NWS Sioux Falls, SD

Home | Current Version | Previous Version | Text Only | Print | Product List | Glossary On
Versions: 1 2 3 4 5 6 7 8 9 10 11 12 13 14 15 16 17 18 19 20 21 22 23 24 25 26 27 28 29 30
512
FTUS43 KFSD 222320
TAFSUX
TAF
KSUX 222320Z 2300/2324 17016G24KT P6SM SCT250
     FM230100 16014KT P6SM BKN040
     FM231000 16013KT P6SM SHRA VCTS OVC035CB
     FM231200 17010KT P6SM -SHRA OVC025
     FM231600 18012KT P6SM OVC015
     FM231900 20010KT P6SM SHRA VCTS BKN035CB=

USA.gov is the U.S. government's official web portal to all federal, state and local government web resources and services.